Ferrysburg, Michigan
Current Conditions -  °F | °C
As of 1:14 PM on Friday 28 Nov 2014 (Local Time) from KMKG Reporting Station
Light Snow Light Snow  
Wind Chill: 13°   Ceiling: 1600
Heat Index: 25°   Visibility: 2mi
Dew Point: 19°   Wind: 15mph
Humidity: 78%   Direction: 160°SSE
Pressure: 30.16"   Gusts: 22mph
Location:  43.08°N, 86.22°W
Report Text: KMKG 281814Z 16013G19KT 2SM -SN OVC016 M04/M07 A3016 RMK AO2 SFC VIS 6 P0000 T10391072
Loading
Personal Weather Stations






























Interactive Weather Map New forecast layout! Learn more

10-Day Weather Forecast

Advertisements
Track Severe Weather on mobile